sensor_id;sensor_type;location;lat;lon;timestamp;pressure;altitude;pressure_sealevel;temperature;humidity
24558;BME280;12726;49.148;8.582;2023-02-20T00:01:16;101557.34;;;8.43;93.36
24558;BME280;12726;49.148;8.582;2023-02-20T00:04:01;101553.81;;;8.34;93.33
24558;BME280;12726;49.148;8.582;2023-02-20T00:06:47;101547.44;;;8.27;93.66
24558;BME280;12726;49.148;8.582;2023-02-20T00:09:36;101551.16;;;8.10;93.77
24558;BME280;12726;49.148;8.582;2023-02-20T00:12:21;101557.00;;;8.13;94.50
24558;BME280;12726;49.148;8.582;2023-02-20T00:15:07;101563.03;;;8.07;94.54
24558;BME280;12726;49.148;8.582;2023-02-20T00:17:53;101577.47;;;8.14;94.42
24558;BME280;12726;49.148;8.582;2023-02-20T00:20:38;101580.81;;;8.08;94.51
24558;BME280;12726;49.148;8.582;2023-02-20T00:23:24;101586.00;;;7.94;95.03
24558;BME280;12726;49.148;8.582;2023-02-20T00:26:12;101583.47;;;7.92;95.57
24558;BME280;12726;49.148;8.582;2023-02-20T00:28:58;101587.50;;;7.80;95.53
24558;BME280;12726;49.148;8.582;2023-02-20T00:31:49;101585.81;;;7.79;95.80
24558;BME280;12726;49.148;8.582;2023-02-20T00:34:35;101586.81;;;7.78;95.86
24558;BME280;12726;49.148;8.582;2023-02-20T00:37:20;101583.97;;;7.71;95.75
24558;BME280;12726;49.148;8.582;2023-02-20T00:40:06;101585.78;;;7.63;95.75
24558;BME280;12726;49.148;8.582;2023-02-20T00:42:54;101584.75;;;7.56;96.23
24558;BME280;12726;49.148;8.582;2023-02-20T00:45:39;101581.09;;;7.57;96.37
24558;BME280;12726;49.148;8.582;2023-02-20T00:48:24;101592.59;;;7.41;96.55
24558;BME280;12726;49.148;8.582;2023-02-20T00:51:10;101582.84;;;7.32;97.48
24558;BME280;12726;49.148;8.582;2023-02-20T00:53:55;101580.66;;;7.27;97.65
24558;BME280;12726;49.148;8.582;2023-02-20T00:56:41;101586.50;;;7.23;97.81
24558;BME280;12726;49.148;8.582;2023-02-20T00:59:27;101583.47;;;7.18;97.85
24558;BME280;12726;49.148;8.582;2023-02-20T01:02:13;101581.28;;;7.13;97.79
24558;BME280;12726;49.148;8.582;2023-02-20T01:04:58;101587.09;;;7.00;98.49
24558;BME280;12726;49.148;8.582;2023-02-20T01:07:44;101570.13;;;6.92;98.86
24558;BME280;12726;49.148;8.582;2023-02-20T01:10:30;101565.97;;;6.97;99.28
24558;BME280;12726;49.148;8.582;2023-02-20T01:13:15;101564.97;;;6.98;98.96
24558;BME280;12726;49.148;8.582;2023-02-20T01:16:03;101559.97;;;6.95;99.32
24558;BME280;12726;49.148;8.582;2023-02-20T01:18:49;101560.91;;;6.86;99.13
24558;BME280;12726;49.148;8.582;2023-02-20T01:21:34;101564.44;;;6.87;99.77
24558;BME280;12726;49.148;8.582;2023-02-20T01:24:20;101557.06;;;6.81;99.81
24558;BME280;12726;49.148;8.582;2023-02-20T01:27:05;101562.72;;;6.78;100.00
24558;BME280;12726;49.148;8.582;2023-02-20T01:29:51;101552.66;;;6.72;100.00
24558;BME280;12726;49.148;8.582;2023-02-20T01:32:37;101563.31;;;6.63;100.00
24558;BME280;12726;49.148;8.582;2023-02-20T01:35:23;101562.19;;;6.48;100.00
24558;BME280;12726;49.148;8.582;2023-02-20T01:38:08;101572.41;;;6.45;100.00
24558;BME280;12726;49.148;8.582;2023-02-20T01:40:54;101567.88;;;6.45;100.00
24558;BME280;12726;49.148;8.582;2023-02-20T01:43:41;101560.91;;;6.52;100.00
24558;BME280;12726;49.148;8.582;2023-02-20T01:46:46;101559.53;;;6.48;100.00
24558;BME280;12726;49.148;8.582;2023-02-20T01:49:36;101563.09;;;6.57;100.00
24558;BME280;12726;49.148;8.582;2023-02-20T01:52:25;101560.91;;;6.52;100.00
24558;BME280;12726;49.148;8.582;2023-02-20T01:55:13;101558.53;;;6.49;100.00
24558;BME280;12726;49.148;8.582;2023-02-20T01:58:02;101554.72;;;6.52;100.00
24558;BME280;12726;49.148;8.582;2023-02-20T02:00:50;101548.31;;;6.45;100.00
24558;BME280;12726;49.148;8.582;2023-02-20T02:03:38;101546.94;;;6.41;100.00
24558;BME280;12726;49.148;8.582;2023-02-20T02:06:26;101540.88;;;6.31;100.00
24558;BME280;12726;49.148;8.582;2023-02-20T02:09:15;101542.91;;;6.37;100.00
24558;BME280;12726;49.148;8.582;2023-02-20T02:12:03;101535.41;;;6.40;100.00
24558;BME280;12726;49.148;8.582;2023-02-20T02:14:49;101540.03;;;6.30;100.00
24558;BME280;12726;49.148;8.582;2023-02-20T02:18:11;101525.28;;;6.26;100.00
24558;BME280;12726;49.148;8.582;2023-02-20T02:21:33;101528.50;;;6.29;100.00
24558;BME280;12726;49.148;8.582;2023-02-20T02:24:54;101531.00;;;6.31;100.00
24558;BME280;12726;49.148;8.582;2023-02-20T02:28:21;101532.09;;;6.20;100.00
24558;BME280;12726;49.148;8.582;2023-02-20T02:31:39;101528.78;;;6.26;100.00
24558;BME280;12726;49.148;8.582;2023-02-20T02:38:02;101529.56;;;6.19;100.00
24558;BME280;12726;49.148;8.582;2023-02-20T02:40:58;101524.91;;;6.21;100.00
24558;BME280;12726;49.148;8.582;2023-02-20T02:43:53;101528.44;;;6.21;100.00
24558;BME280;12726;49.148;8.582;2023-02-20T02:46:43;101529.97;;;6.24;100.00
24558;BME280;12726;49.148;8.582;2023-02-20T02:49:37;101526.41;;;6.15;100.00
24558;BME280;12726;49.148;8.582;2023-02-20T02:52:25;101528.38;;;6.13;100.00
24558;BME280;12726;49.148;8.582;2023-02-20T02:55:33;101522.19;;;6.13;100.00
24558;BME280;12726;49.148;8.582;2023-02-20T02:58:19;101521.03;;;6.15;100.00
24558;BME280;12726;49.148;8.582;2023-02-20T03:01:04;101515.91;;;6.22;100.00
24558;BME280;12726;49.148;8.582;2023-02-20T03:03:51;101508.38;;;6.17;100.00
24558;BME280;12726;49.148;8.582;2023-02-20T03:06:39;101511.03;;;6.17;100.00
24558;BME280;12726;49.148;8.582;2023-02-20T03:09:28;101508.97;;;6.11;100.00
24558;BME280;12726;49.148;8.582;2023-02-20T03:12:17;101507.47;;;6.09;100.00
24558;BME280;12726;49.148;8.582;2023-02-20T03:15:06;101504.16;;;6.15;100.00
24558;BME280;12726;49.148;8.582;2023-02-20T03:18:19;101507.13;;;6.12;100.00
24558;BME280;12726;49.148;8.582;2023-02-20T03:21:12;101516.00;;;6.12;100.00
24558;BME280;12726;49.148;8.582;2023-02-20T03:24:00;101506.84;;;6.15;100.00
24558;BME280;12726;49.148;8.582;2023-02-20T03:26:47;101513.50;;;6.11;100.00
24558;BME280;12726;49.148;8.582;2023-02-20T03:29:36;101502.41;;;6.06;100.00
24558;BME280;12726;49.148;8.582;2023-02-20T03:32:23;101514.66;;;6.08;100.00
24558;BME280;12726;49.148;8.582;2023-02-20T03:35:30;101510.22;;;5.99;100.00
24558;BME280;12726;49.148;8.582;2023-02-20T03:38:36;101509.38;;;5.99;100.00
24558;BME280;12726;49.148;8.582;2023-02-20T03:41:41;101496.41;;;6.04;100.00
24558;BME280;12726;49.148;8.582;2023-02-20T03:44:47;101508.38;;;6.00;100.00
24558;BME280;12726;49.148;8.582;2023-02-20T03:47:35;101500.38;;;6.00;100.00
24558;BME280;12726;49.148;8.582;2023-02-20T03:50:21;101508.25;;;6.01;100.00
24558;BME280;12726;49.148;8.582;2023-02-20T03:53:24;101510.06;;;6.01;100.00
24558;BME280;12726;49.148;8.582;2023-02-20T03:56:13;101511.22;;;5.98;100.00
24558;BME280;12726;49.148;8.582;2023-02-20T03:59:02;101509.03;;;5.94;100.00
24558;BME280;12726;49.148;8.582;2023-02-20T04:01:55;101500.00;;;5.95;100.00
24558;BME280;12726;49.148;8.582;2023-02-20T04:04:46;101504.50;;;5.94;100.00
24558;BME280;12726;49.148;8.582;2023-02-20T04:07:34;101505.22;;;5.96;100.00
24558;BME280;12726;49.148;8.582;2023-02-20T04:10:23;101503.38;;;5.97;100.00
24558;BME280;12726;49.148;8.582;2023-02-20T04:13:10;101507.41;;;6.01;100.00
24558;BME280;12726;49.148;8.582;2023-02-20T04:15:59;101502.06;;;6.01;100.00
24558;BME280;12726;49.148;8.582;2023-02-20T04:18:46;101498.91;;;6.05;100.00
24558;BME280;12726;49.148;8.582;2023-02-20T04:21:36;101509.78;;;6.04;100.00
24558;BME280;12726;49.148;8.582;2023-02-20T04:24:26;101512.59;;;6.02;100.00
24558;BME280;12726;49.148;8.582;2023-02-20T04:27:13;101522.75;;;5.99;100.00
24558;BME280;12726;49.148;8.582;2023-02-20T04:29:59;101523.06;;;5.96;100.00
24558;BME280;12726;49.148;8.582;2023-02-20T04:32:44;101521.28;;;5.86;100.00
24558;BME280;12726;49.148;8.582;2023-02-20T04:35:31;101506.63;;;5.90;100.00
24558;BME280;12726;49.148;8.582;2023-02-20T04:38:18;101516.72;;;5.79;100.00
24558;BME280;12726;49.148;8.582;2023-02-20T04:41:03;101514.66;;;5.73;100.00
24558;BME280;12726;49.148;8.582;2023-02-20T04:43:49;101516.78;;;5.69;100.00
24558;BME280;12726;49.148;8.582;2023-02-20T04:46:54;101515.72;;;5.62;100.00
24558;BME280;12726;49.148;8.582;2023-02-20T04:49:39;101523.53;;;5.73;100.00
24558;BME280;12726;49.148;8.582;2023-02-20T04:52:26;101523.81;;;5.70;100.00
24558;BME280;12726;49.148;8.582;2023-02-20T04:55:12;101519.31;;;5.71;100.00
24558;BME280;12726;49.148;8.582;2023-02-20T04:57:57;101515.81;;;5.70;100.00
24558;BME280;12726;49.148;8.582;2023-02-20T05:00:43;101520.91;;;5.64;100.00
24558;BME280;12726;49.148;8.582;2023-02-20T05:03:28;101518.72;;;5.59;100.00
24558;BME280;12726;49.148;8.582;2023-02-20T05:06:13;101520.06;;;5.63;100.00
24558;BME280;12726;49.148;8.582;2023-02-20T05:09:00;101521.25;;;5.61;100.00
24558;BME280;12726;49.148;8.582;2023-02-20T05:11:45;101519.84;;;5.57;100.00
24558;BME280;12726;49.148;8.582;2023-02-20T05:14:30;101515.06;;;5.60;100.00
24558;BME280;12726;49.148;8.582;2023-02-20T05:17:16;101518.34;;;5.54;100.00
24558;BME280;12726;49.148;8.582;2023-02-20T05:20:01;101509.94;;;5.49;100.00
24558;BME280;12726;49.148;8.582;2023-02-20T05:22:48;101512.31;;;5.52;100.00
24558;BME280;12726;49.148;8.582;2023-02-20T05:25:34;101514.13;;;5.51;100.00
24558;BME280;12726;49.148;8.582;2023-02-20T05:28:20;101515.59;;;5.46;100.00
24558;BME280;12726;49.148;8.582;2023-02-20T05:31:05;101513.34;;;5.41;100.00
24558;BME280;12726;49.148;8.582;2023-02-20T05:33:51;101524.41;;;5.29;100.00
24558;BME280;12726;49.148;8.582;2023-02-20T05:36:36;101520.91;;;5.28;100.00
24558;BME280;12726;49.148;8.582;2023-02-20T05:39:21;101526.72;;;5.24;100.00
24558;BME280;12726;49.148;8.582;2023-02-20T05:42:08;101522.56;;;5.11;100.00
24558;BME280;12726;49.148;8.582;2023-02-20T05:44:54;101524.69;;;5.08;100.00
24558;BME280;12726;49.148;8.582;2023-02-20T05:47:39;101523.00;;;5.07;100.00
24558;BME280;12726;49.148;8.582;2023-02-20T05:50:25;101522.88;;;5.08;100.00
24558;BME280;12726;49.148;8.582;2023-02-20T05:53:10;101514.13;;;5.16;100.00
24558;BME280;12726;49.148;8.582;2023-02-20T05:55:56;101508.78;;;5.16;100.00
24558;BME280;12726;49.148;8.582;2023-02-20T05:58:42;101511.72;;;5.13;100.00
24558;BME280;12726;49.148;8.582;2023-02-20T06:01:30;101504.28;;;5.17;100.00
24558;BME280;12726;49.148;8.582;2023-02-20T06:04:15;101506.91;;;4.99;100.00
24558;BME280;12726;49.148;8.582;2023-02-20T06:07:00;101504.78;;;5.02;100.00
24558;BME280;12726;49.148;8.582;2023-02-20T06:09:46;101504.19;;;5.08;100.00
24558;BME280;12726;49.148;8.582;2023-02-20T06:12:32;101506.63;;;5.02;100.00
24558;BME280;12726;49.148;8.582;2023-02-20T06:15:19;101509.44;;;5.00;100.00
24558;BME280;12726;49.148;8.582;2023-02-20T06:18:04;101513.16;;;4.90;100.00
24558;BME280;12726;49.148;8.582;2023-02-20T06:20:50;101514.75;;;5.00;100.00
24558;BME280;12726;49.148;8.582;2023-02-20T06:23:36;101517.72;;;4.97;100.00
24558;BME280;12726;49.148;8.582;2023-02-20T06:26:22;101513.97;;;4.90;100.00
24558;BME280;12726;49.148;8.582;2023-02-20T06:29:07;101513.56;;;4.85;100.00
24558;BME280;12726;49.148;8.582;2023-02-20T06:31:56;101512.22;;;4.81;100.00
24558;BME280;12726;49.148;8.582;2023-02-20T06:34:43;101519.16;;;4.92;100.00
24558;BME280;12726;49.148;8.582;2023-02-20T06:37:29;101514.66;;;4.92;100.00
24558;BME280;12726;49.148;8.582;2023-02-20T06:40:14;101512.88;;;4.83;100.00
24558;BME280;12726;49.148;8.582;2023-02-20T06:43:00;101516.13;;;4.77;100.00
24558;BME280;12726;49.148;8.582;2023-02-20T06:45:45;101511.22;;;4.82;100.00
24558;BME280;12726;49.148;8.582;2023-02-20T06:48:32;101510.41;;;4.99;100.00
24558;BME280;12726;49.148;8.582;2023-02-20T06:51:18;101512.28;;;5.17;100.00
24558;BME280;12726;49.148;8.582;2023-02-20T06:54:04;101518.94;;;5.30;100.00
24558;BME280;12726;49.148;8.582;2023-02-20T06:56:49;101512.75;;;5.30;100.00
24558;BME280;12726;49.148;8.582;2023-02-20T06:59:35;101520.31;;;5.52;100.00
24558;BME280;12726;49.148;8.582;2023-02-20T07:02:24;101515.34;;;5.57;100.00
24558;BME280;12726;49.148;8.582;2023-02-20T07:05:11;101519.41;;;5.61;100.00
24558;BME280;12726;49.148;8.582;2023-02-20T07:07:56;101517.25;;;5.65;100.00
24558;BME280;12726;49.148;8.582;2023-02-20T07:10:42;101509.00;;;5.76;100.00
24558;BME280;12726;49.148;8.582;2023-02-20T07:13:27;101513.41;;;5.85;100.00
24558;BME280;12726;49.148;8.582;2023-02-20T07:16:13;101505.41;;;6.03;100.00
24558;BME280;12726;49.148;8.582;2023-02-20T07:18:58;101511.19;;;6.16;100.00
24558;BME280;12726;49.148;8.582;2023-02-20T07:21:46;101515.69;;;6.15;100.00
24558;BME280;12726;49.148;8.582;2023-02-20T07:24:32;101527.44;;;6.22;100.00
24558;BME280;12726;49.148;8.582;2023-02-20T07:27:19;101523.66;;;6.33;100.00
24558;BME280;12726;49.148;8.582;2023-02-20T07:30:05;101536.44;;;6.47;99.47
24558;BME280;12726;49.148;8.582;2023-02-20T07:32:51;101537.69;;;6.61;98.21
24558;BME280;12726;49.148;8.582;2023-02-20T07:35:36;101549.88;;;6.55;97.74
24558;BME280;12726;49.148;8.582;2023-02-20T07:38:23;101539.75;;;6.67;97.66
24558;BME280;12726;49.148;8.582;2023-02-20T07:41:09;101553.59;;;6.62;98.21
24558;BME280;12726;49.148;8.582;2023-02-20T07:43:54;101547.69;;;6.85;98.48
24558;BME280;12726;49.148;8.582;2023-02-20T07:46:40;101544.69;;;7.30;96.07
24558;BME280;12726;49.148;8.582;2023-02-20T07:49:26;101552.13;;;7.84;93.31
24558;BME280;12726;49.148;8.582;2023-02-20T07:52:11;101548.72;;;8.63;87.91
24558;BME280;12726;49.148;8.582;2023-02-20T07:54:58;101530.00;;;9.25;82.89
24558;BME280;12726;49.148;8.582;2023-02-20T07:57:46;101541.94;;;9.99;79.27
24558;BME280;12726;49.148;8.582;2023-02-20T08:00:32;101540.19;;;10.29;76.83
24558;BME280;12726;49.148;8.582;2023-02-20T08:03:17;101539.19;;;10.89;73.44
24558;BME280;12726;49.148;8.582;2023-02-20T08:06:03;101540.56;;;11.29;71.50
24558;BME280;12726;49.148;8.582;2023-02-20T08:08:48;101529.59;;;11.52;69.97
24558;BME280;12726;49.148;8.582;2023-02-20T08:11:36;101534.50;;;11.63;69.31
24558;BME280;12726;49.148;8.582;2023-02-20T08:14:21;101526.16;;;12.00;67.44
24558;BME280;12726;49.148;8.582;2023-02-20T08:17:06;101536.84;;;12.15;66.99
24558;BME280;12726;49.148;8.582;2023-02-20T08:19:52;101538.44;;;12.59;64.98
24558;BME280;12726;49.148;8.582;2023-02-20T08:22:37;101535.03;;;12.78;65.11
24558;BME280;12726;49.148;8.582;2023-02-20T08:25:22;101529.72;;;12.98;63.63
24558;BME280;12726;49.148;8.582;2023-02-20T08:28:09;101522.75;;;13.16;61.71
24558;BME280;12726;49.148;8.582;2023-02-20T08:30:55;101519.56;;;13.00;62.63
24558;BME280;12726;49.148;8.582;2023-02-20T08:33:40;101516.22;;;13.71;60.83
24558;BME280;12726;49.148;8.582;2023-02-20T08:36:26;101516.09;;;14.06;58.89
24558;BME280;12726;49.148;8.582;2023-02-20T08:39:11;101517.06;;;13.79;59.08
24558;BME280;12726;49.148;8.582;2023-02-20T08:41:56;101517.50;;;14.15;58.86
24558;BME280;12726;49.148;8.582;2023-02-20T08:44:43;101518.94;;;13.65;58.87
24558;BME280;12726;49.148;8.582;2023-02-20T08:47:29;101511.25;;;13.82;60.07
24558;BME280;12726;49.148;8.582;2023-02-20T08:50:14;101516.47;;;13.96;59.33
24558;BME280;12726;49.148;8.582;2023-02-20T08:53:00;101505.84;;;14.08;58.10
24558;BME280;12726;49.148;8.582;2023-02-20T08:55:45;101505.63;;;14.29;57.40
24558;BME280;12726;49.148;8.582;2023-02-20T08:58:31;101491.91;;;14.11;58.24
24558;BME280;12726;49.148;8.582;2023-02-20T09:01:17;101501.84;;;12.97;60.39
24558;BME280;12726;49.148;8.582;2023-02-20T09:04:03;101498.03;;;12.78;62.86
24558;BME280;12726;49.148;8.582;2023-02-20T09:06:48;101498.06;;;12.50;63.82
24558;BME280;12726;49.148;8.582;2023-02-20T09:09:33;101497.47;;;12.21;64.85
24558;BME280;12726;49.148;8.582;2023-02-20T09:12:18;101486.38;;;11.66;66.33
24558;BME280;12726;49.148;8.582;2023-02-20T09:15:04;101490.75;;;11.10;68.56
24558;BME280;12726;49.148;8.582;2023-02-20T09:17:51;101493.31;;;10.68;70.60
24558;BME280;12726;49.148;8.582;2023-02-20T09:20:37;101485.25;;;10.38;72.23
24558;BME280;12726;49.148;8.582;2023-02-20T09:23:22;101477.81;;;10.26;72.29
24558;BME280;12726;49.148;8.582;2023-02-20T09:26:09;101484.09;;;10.18;72.42
24558;BME280;12726;49.148;8.582;2023-02-20T09:28:55;101475.81;;;10.05;73.03
24558;BME280;12726;49.148;8.582;2023-02-20T09:31:40;101474.38;;;10.32;72.11
24558;BME280;12726;49.148;8.582;2023-02-20T09:34:27;101472.00;;;11.02;70.51
24558;BME280;12726;49.148;8.582;2023-02-20T09:37:13;101463.91;;;12.08;65.82
24558;BME280;12726;49.148;8.582;2023-02-20T09:39:58;101465.91;;;13.10;61.32
24558;BME280;12726;49.148;8.582;2023-02-20T09:42:54;101464.78;;;14.44;58.89
24558;BME280;12726;49.148;8.582;2023-02-20T09:45:47;101473.53;;;15.48;54.14
24558;BME280;12726;49.148;8.582;2023-02-20T09:48:48;101465.13;;;16.13;51.61
24558;BME280;12726;49.148;8.582;2023-02-20T09:51:42;101458.41;;;15.65;52.04
24558;BME280;12726;49.148;8.582;2023-02-20T09:54:31;101456.53;;;15.91;50.36
24558;BME280;12726;49.148;8.582;2023-02-20T09:57:20;101458.03;;;16.12;50.41
24558;BME280;12726;49.148;8.582;2023-02-20T10:00:13;101455.69;;;15.90;50.72
24558;BME280;12726;49.148;8.582;2023-02-20T10:03:12;101452.00;;;15.53;50.97
24558;BME280;12726;49.148;8.582;2023-02-20T10:06:00;101441.50;;;16.31;49.28
24558;BME280;12726;49.148;8.582;2023-02-20T10:08:48;101440.41;;;16.14;49.86
24558;BME280;12726;49.148;8.582;2023-02-20T10:11:47;101444.38;;;15.93;49.96
24558;BME280;12726;49.148;8.582;2023-02-20T10:14:43;101440.19;;;16.16;48.82
24558;BME280;12726;49.148;8.582;2023-02-20T10:17:39;101434.94;;;16.57;48.16
24558;BME280;12726;49.148;8.582;2023-02-20T10:20:35;101441.84;;;16.78;47.10
24558;BME280;12726;49.148;8.582;2023-02-20T10:23:27;101440.94;;;16.66;47.92
24558;BME280;12726;49.148;8.582;2023-02-20T10:26:20;101432.19;;;16.21;48.51
24558;BME280;12726;49.148;8.582;2023-02-20T10:29:14;101428.75;;;16.87;48.02
24558;BME280;12726;49.148;8.582;2023-02-20T10:32:03;101434.88;;;17.30;46.41
24558;BME280;12726;49.148;8.582;2023-02-20T10:34:55;101425.53;;;18.37;45.34
24558;BME280;12726;49.148;8.582;2023-02-20T10:37:42;101422.00;;;17.49;44.75
24558;BME280;12726;49.148;8.582;2023-02-20T10:40:32;101423.31;;;16.87;46.51
24558;BME280;12726;49.148;8.582;2023-02-20T10:43:21;101420.47;;;16.81;46.98
24558;BME280;12726;49.148;8.582;2023-02-20T10:46:12;101416.38;;;16.36;48.17
24558;BME280;12726;49.148;8.582;2023-02-20T10:49:03;101418.84;;;16.56;47.79
24558;BME280;12726;49.148;8.582;2023-02-20T10:51:55;101420.47;;;16.45;48.54
24558;BME280;12726;49.148;8.582;2023-02-20T10:54:46;101412.75;;;16.78;46.71
24558;BME280;12726;49.148;8.582;2023-02-20T10:57:36;101416.81;;;16.88;46.84
24558;BME280;12726;49.148;8.582;2023-02-20T11:00:29;101414.63;;;17.26;46.46
24558;BME280;12726;49.148;8.582;2023-02-20T11:03:22;101402.94;;;17.07;46.55
24558;BME280;12726;49.148;8.582;2023-02-20T11:06:12;101405.63;;;17.26;46.41
24558;BME280;12726;49.148;8.582;2023-02-20T11:08:58;101401.38;;;17.00;46.42
24558;BME280;12726;49.148;8.582;2023-02-20T11:11:45;101396.13;;;17.16;47.03
24558;BME280;12726;49.148;8.582;2023-02-20T11:14:32;101394.34;;;18.57;43.98
24558;BME280;12726;49.148;8.582;2023-02-20T11:17:21;101394.25;;;18.40;43.26
24558;BME280;12726;49.148;8.582;2023-02-20T11:20:38;101373.44;;;17.87;43.95
24558;BME280;12726;49.148;8.582;2023-02-20T11:23:38;101381.38;;;19.04;42.92
24558;BME280;12726;49.148;8.582;2023-02-20T11:26:31;101355.50;;;19.23;41.00
24558;BME280;12726;49.148;8.582;2023-02-20T11:29:18;101362.25;;;19.04;41.41
24558;BME280;12726;49.148;8.582;2023-02-20T11:32:29;101373.44;;;18.62;43.08
24558;BME280;12726;49.148;8.582;2023-02-20T11:35:24;101364.00;;;19.10;41.76
24558;BME280;12726;49.148;8.582;2023-02-20T11:38:37;101356.25;;;19.35;41.61
24558;BME280;12726;49.148;8.582;2023-02-20T11:41:25;101347.22;;;19.18;42.25
24558;BME280;12726;49.148;8.582;2023-02-20T11:44:19;101342.44;;;19.42;41.82
24558;BME280;12726;49.148;8.582;2023-02-20T11:47:16;101324.38;;;20.13;40.74
24558;BME280;12726;49.148;8.582;2023-02-20T11:50:14;101322.94;;;20.27;39.97
24558;BME280;12726;49.148;8.582;2023-02-20T11:53:02;101316.47;;;19.73;40.45
24558;BME280;12726;49.148;8.582;2023-02-20T11:56:05;101310.94;;;19.51;40.12
24558;BME280;12726;49.148;8.582;2023-02-20T11:58:51;101303.97;;;19.60;41.13
24558;BME280;12726;49.148;8.582;2023-02-20T12:01:36;101300.81;;;20.28;39.22
24558;BME280;12726;49.148;8.582;2023-02-20T12:04:23;101282.16;;;20.47;38.85
24558;BME280;12726;49.148;8.582;2023-02-20T12:07:25;101295.25;;;19.80;40.12
24558;BME280;12726;49.148;8.582;2023-02-20T12:10:28;101286.75;;;21.17;37.04
24558;BME280;12726;49.148;8.582;2023-02-20T12:13:16;101270.28;;;21.54;36.71
24558;BME280;12726;49.148;8.582;2023-02-20T12:16:11;101273.34;;;21.58;36.30
24558;BME280;12726;49.148;8.582;2023-02-20T12:19:09;101267.50;;;21.44;36.09
24558;BME280;12726;49.148;8.582;2023-02-20T12:22:03;101270.28;;;20.90;36.70
24558;BME280;12726;49.148;8.582;2023-02-20T12:25:07;101268.38;;;20.91;37.16
24558;BME280;12726;49.148;8.582;2023-02-20T12:28:08;101265.09;;;20.35;38.06
24558;BME280;12726;49.148;8.582;2023-02-20T12:31:04;101266.94;;;21.10;37.63
24558;BME280;12726;49.148;8.582;2023-02-20T12:34:11;101240.94;;;20.54;37.51
24558;BME280;12726;49.148;8.582;2023-02-20T12:37:07;101259.38;;;19.76;38.80
24558;BME280;12726;49.148;8.582;2023-02-20T12:40:19;101253.00;;;19.87;38.90
24558;BME280;12726;49.148;8.582;2023-02-20T12:43:16;101249.75;;;19.35;40.29
24558;BME280;12726;49.148;8.582;2023-02-20T12:46:11;101241.50;;;18.97;40.36
24558;BME280;12726;49.148;8.582;2023-02-20T12:49:11;101235.88;;;18.02;43.03
24558;BME280;12726;49.148;8.582;2023-02-20T12:52:05;101240.09;;;17.46;45.06
24558;BME280;12726;49.148;8.582;2023-02-20T12:55:07;101225.03;;;17.08;46.84
24558;BME280;12726;49.148;8.582;2023-02-20T12:58:07;101217.22;;;16.17;47.98
24558;BME280;12726;49.148;8.582;2023-02-20T13:00:58;101213.19;;;15.90;48.52
24558;BME280;12726;49.148;8.582;2023-02-20T13:03:50;101193.03;;;15.79;49.75
24558;BME280;12726;49.148;8.582;2023-02-20T13:06:42;101178.72;;;15.72;50.13
24558;BME280;12726;49.148;8.582;2023-02-20T13:09:34;101188.47;;;15.61;50.73
24558;BME280;12726;49.148;8.582;2023-02-20T13:12:23;101185.22;;;15.28;51.61
24558;BME280;12726;49.148;8.582;2023-02-20T13:15:23;101184.53;;;15.14;52.08
24558;BME280;12726;49.148;8.582;2023-02-20T13:18:17;101179.69;;;14.98;52.74
24558;BME280;12726;49.148;8.582;2023-02-20T13:21:07;101173.91;;;15.13;52.21
24558;BME280;12726;49.148;8.582;2023-02-20T13:24:11;101183.34;;;15.28;52.75
24558;BME280;12726;49.148;8.582;2023-02-20T13:27:28;101163.66;;;15.15;54.08
24558;BME280;12726;49.148;8.582;2023-02-20T13:30:18;101170.25;;;15.25;53.35
24558;BME280;12726;49.148;8.582;2023-02-20T13:33:11;101170.72;;;15.41;52.77
24558;BME280;12726;49.148;8.582;2023-02-20T13:35:57;101158.09;;;15.28;53.10
24558;BME280;12726;49.148;8.582;2023-02-20T13:42:42;101146.88;;;15.24;52.36
24558;BME280;12726;49.148;8.582;2023-02-20T13:45:36;101139.84;;;15.35;52.22
24558;BME280;12726;49.148;8.582;2023-02-20T13:48:39;101134.59;;;15.40;51.71
24558;BME280;12726;49.148;8.582;2023-02-20T13:51:32;101135.09;;;15.49;50.90
24558;BME280;12726;49.148;8.582;2023-02-20T13:54:25;101127.72;;;15.38;51.41
24558;BME280;12726;49.148;8.582;2023-02-20T13:57:16;101131.28;;;15.56;51.88
24558;BME280;12726;49.148;8.582;2023-02-20T14:00:20;101119.03;;;15.54;51.39
24558;BME280;12726;49.148;8.582;2023-02-20T14:03:13;101113.81;;;15.34;48.98
24558;BME280;12726;49.148;8.582;2023-02-20T14:06:04;101102.09;;;15.15;48.58
24558;BME280;12726;49.148;8.582;2023-02-20T14:09:06;101109.19;;;15.16;48.92
24558;BME280;12726;49.148;8.582;2023-02-20T14:11:53;101121.31;;;15.14;48.85
24558;BME280;12726;49.148;8.582;2023-02-20T14:14:48;101105.34;;;15.24;48.64
24558;BME280;12726;49.148;8.582;2023-02-20T14:17:35;101092.69;;;15.36;48.26
24558;BME280;12726;49.148;8.582;2023-02-20T14:20:25;101090.28;;;15.28;48.74
24558;BME280;12726;49.148;8.582;2023-02-20T14:23:21;101088.84;;;15.25;48.59
24558;BME280;12726;49.148;8.582;2023-02-20T14:26:18;101081.78;;;15.24;49.94
24558;BME280;12726;49.148;8.582;2023-02-20T14:29:19;101075.06;;;15.09;48.09
24558;BME280;12726;49.148;8.582;2023-02-20T14:32:05;101072.34;;;15.09;49.17
24558;BME280;12726;49.148;8.582;2023-02-20T14:34:56;101081.75;;;15.06;49.50
24558;BME280;12726;49.148;8.582;2023-02-20T14:37:49;101084.25;;;15.08;49.18
24558;BME280;12726;49.148;8.582;2023-02-20T14:40:40;101077.56;;;15.10;50.48
24558;BME280;12726;49.148;8.582;2023-02-20T14:43:26;101073.78;;;15.11;49.75
24558;BME280;12726;49.148;8.582;2023-02-20T14:46:20;101063.38;;;15.08;49.17
24558;BME280;12726;49.148;8.582;2023-02-20T14:49:08;101074.59;;;14.94;49.47
24558;BME280;12726;49.148;8.582;2023-02-20T14:52:13;101066.25;;;14.77;50.04
24558;BME280;12726;49.148;8.582;2023-02-20T14:55:00;101055.03;;;14.92;49.48
24558;BME280;12726;49.148;8.582;2023-02-20T14:57:47;101057.63;;;14.80;50.27